< < Back
Terminal Aerodrome Forecast


Current Version              Previous Versions:   1  2  3  4  5  6  7  8  9  

Terminal Aerodrome Forecast

405
FTUS44 KMRX 291720
TAFTYS
TAF
KTYS 291720Z 2918/3018 06003KT P6SM SCT250
     FM300600 00000KT P6SM FEW250=



Latest METAR

462
SAUS80 KWBC 291800 RRC
MTRTYS
METAR KTYS 291753Z 07009KT 10SM FEW038 SCT250 32/15 A3016 RMK AO2 SLP199
T03220150 10328 20217 58012


USA.gov is the U.S. government's official web portal to all federal, state and local government web resources and services.